Time;durP1;ratioP1;P1;durP2;ratioP2;P2;SDS_P1;SDS_P2;PMS_P1;PMS_P2;Temp;Humidity;BMP_temperature;BMP_pressure;BME280_temperature;BME280_humidity;BME280_pressure;Samples;Min_cycle;Max_cycle;Signal;HPM_P1;HPM_P2
2021/11/03 00:01:04;;;;;;;8.70;6.83;;;;;;;;;;5138179;27;20446;-72
2021/11/03 00:03:33;;;;;;;11.67;8.40;;;;;;;;;;5138995;27;20540;-72
2021/11/03 00:06:01;;;;;;;10.00;6.57;;;;;;;;;;5138746;27;20477;-72
2021/11/03 00:08:29;;;;;;;8.20;7.20;;;;;;;;;;5138838;27;20450;-72
2021/11/03 00:10:56;;;;;;;8.80;6.70;;;;;;;;;;5137880;27;20454;-72
2021/11/03 00:13:28;;;;;;;10.70;7.00;;;;;;;;;;5128795;27;20478;-70
2021/11/03 00:15:59;;;;;;;9.80;7.00;;;;;;;;;;5131959;27;20486;-72
2021/11/03 00:18:26;;;;;;;8.03;6.23;;;;;;;;;;5138289;27;20815;-70
2021/11/03 00:20:57;;;;;;;8.43;5.60;;;;;;;;;;5138192;27;20506;-70
2021/11/03 00:23:24;;;;;;;8.60;6.23;;;;;;;;;;5139009;27;20912;-72
2021/11/03 00:25:51;;;;;;;10.70;6.70;;;;;;;;;;5139440;27;20476;-72
2021/11/03 00:28:22;;;;;;;9.07;6.20;;;;;;;;;;5138879;27;20532;-72
2021/11/03 00:30:50;;;;;;;8.90;6.10;;;;;;;;;;5138753;27;20485;-71
2021/11/03 00:33:19;;;;;;;8.60;6.60;;;;;;;;;;5138901;27;20828;-72
2021/11/03 00:35:46;;;;;;;10.40;6.87;;;;;;;;;;5138102;27;20869;-72
2021/11/03 00:38:13;;;;;;;10.03;6.47;;;;;;;;;;5137696;27;20512;-71
2021/11/03 00:40:41;;;;;;;6.70;4.93;;;;;;;;;;5138934;27;20458;-71
2021/11/03 00:43:08;;;;;;;14.27;7.47;;;;;;;;;;5137972;27;20768;-71
2021/11/03 00:45:35;;;;;;;7.70;5.97;;;;;;;;;;5139383;27;20457;-72
2021/11/03 00:48:02;;;;;;;11.00;7.00;;;;;;;;;;5137540;27;20591;-72
2021/11/03 00:50:32;;;;;;;7.07;6.37;;;;;;;;;;5139328;27;21062;-72
2021/11/03 00:53:00;;;;;;;6.60;5.33;;;;;;;;;;5138275;27;20452;-72
2021/11/03 00:55:27;;;;;;;9.73;5.20;;;;;;;;;;5134257;27;20463;-72
2021/11/03 00:57:55;;;;;;;8.03;5.63;;;;;;;;;;5118878;27;20453;-72
2021/11/03 01:00:22;;;;;;;9.27;6.00;;;;;;;;;;5128011;27;20465;-71
2021/11/03 01:02:50;;;;;;;8.77;5.77;;;;;;;;;;5138739;27;20858;-71
2021/11/03 01:05:27;;;;;;;7.77;6.50;;;;;;;;;;5138609;27;20525;-71
2021/11/03 01:08:03;;;;;;;12.47;8.53;;;;;;;;;;5124166;27;20533;-72
2021/11/03 01:10:30;;;;;;;13.30;6.93;;;;;;;;;;5135540;27;20947;-72
2021/11/03 01:12:57;;;;;;;8.20;5.73;;;;;;;;;;5137954;27;20517;-72
2021/11/03 01:15:25;;;;;;;9.33;7.43;;;;;;;;;;5137558;27;20454;-72
2021/11/03 01:17:54;;;;;;;10.77;7.10;;;;;;;;;;5137701;27;20454;-72
2021/11/03 01:20:21;;;;;;;10.27;6.60;;;;;;;;;;5138314;27;20470;-71
2021/11/03 01:22:48;;;;;;;6.70;5.10;;;;;;;;;;5136884;27;20442;-71
2021/11/03 01:25:17;;;;;;;11.37;7.17;;;;;;;;;;5138041;27;20515;-72
2021/11/03 01:27:44;;;;;;;10.70;6.30;;;;;;;;;;5138002;27;20585;-72
2021/11/03 01:30:16;;;;;;;9.70;6.97;;;;;;;;;;5129781;27;20536;-72
2021/11/03 01:32:44;;;;;;;8.87;6.20;;;;;;;;;;5139391;27;20442;-71
2021/11/03 01:35:11;;;;;;;10.63;6.97;;;;;;;;;;5138202;27;20789;-72
2021/11/03 01:37:39;;;;;;;7.40;6.23;;;;;;;;;;5138937;27;20450;-72
2021/11/03 01:40:09;;;;;;;8.07;6.80;;;;;;;;;;5138052;27;20453;-71
2021/11/03 01:42:44;;;;;;;12.40;6.73;;;;;;;;;;5137518;27;20457;-71
2021/11/03 01:45:13;;;;;;;10.57;6.27;;;;;;;;;;5138112;27;20489;-71
2021/11/03 01:47:43;;;;;;;9.30;6.03;;;;;;;;;;5137226;27;20442;-71
2021/11/03 01:50:13;;;;;;;8.60;6.30;;;;;;;;;;5138355;27;20499;-72
2021/11/03 01:52:41;;;;;;;8.93;6.00;;;;;;;;;;5137962;27;20923;-72
2021/11/03 01:55:10;;;;;;;11.47;7.50;;;;;;;;;;5137127;27;20460;-71
2021/11/03 01:57:40;;;;;;;7.60;5.57;;;;;;;;;;5138593;27;20864;-72
2021/11/03 02:00:10;;;;;;;9.17;5.70;;;;;;;;;;5137456;27;20457;-72
2021/11/03 02:02:39;;;;;;;9.37;8.00;;;;;;;;;;5136326;27;20450;-73
2021/11/03 02:05:07;;;;;;;9.07;6.10;;;;;;;;;;5130517;27;20514;-72
2021/11/03 02:07:35;;;;;;;7.50;5.63;;;;;;;;;;5133276;27;20590;-72
2021/11/03 02:10:02;;;;;;;7.40;5.37;;;;;;;;;;5139969;27;20531;-72
2021/11/03 02:12:30;;;;;;;6.27;5.37;;;;;;;;;;5138293;27;20568;-72
2021/11/03 02:14:58;;;;;;;5.63;4.57;;;;;;;;;;5136114;27;20461;-71
2021/11/03 02:17:26;;;;;;;6.53;5.23;;;;;;;;;;5137513;27;20452;-72
2021/11/03 02:19:54;;;;;;;8.97;6.03;;;;;;;;;;5137685;27;20782;-72
2021/11/03 02:22:28;;;;;;;10.40;6.90;;;;;;;;;;5138681;27;20453;-72
2021/11/03 02:25:01;;;;;;;7.33;4.90;;;;;;;;;;5137079;27;20484;-72
2021/11/03 02:27:30;;;;;;;8.83;5.90;;;;;;;;;;5137430;27;20442;-72
2021/11/03 02:29:57;;;;;;;7.63;5.60;;;;;;;;;;5136509;27;20474;-72
2021/11/03 02:32:27;;;;;;;7.43;6.63;;;;;;;;;;5136974;27;20454;-72
2021/11/03 02:34:54;;;;;;;9.53;7.00;;;;;;;;;;5138391;27;20448;-72
2021/11/03 02:37:45;;;;;;;13.40;5.83;;;;;;;;;;5140433;27;20907;-72
2021/11/03 02:40:26;;;;;;;10.20;5.90;;;;;;;;;;5121490;27;21021;-71
2021/11/03 02:42:55;;;;;;;6.90;5.00;;;;;;;;;;5141161;27;20910;-71
2021/11/03 02:45:25;;;;;;;6.70;5.37;;;;;;;;;;5138132;27;20510;-71
2021/11/03 02:47:56;;;;;;;6.63;5.13;;;;;;;;;;5137282;27;20537;-71
2021/11/03 02:50:27;;;;;;;8.60;5.03;;;;;;;;;;5140862;27;20462;-72
2021/11/03 02:53:06;;;;;;;8.03;5.70;;;;;;;;;;5140622;27;20457;-72
2021/11/03 02:55:36;;;;;;;7.53;5.00;;;;;;;;;;5140302;27;20483;-71
2021/11/03 02:58:03;;;;;;;7.90;5.00;;;;;;;;;;5140028;27;20525;-71
2021/11/03 03:00:39;;;;;;;7.40;5.30;;;;;;;;;;5134485;27;20706;-72
2021/11/03 03:03:06;;;;;;;6.97;5.40;;;;;;;;;;5119106;27;20556;-72
2021/11/03 03:05:37;;;;;;;7.07;5.80;;;;;;;;;;5129540;27;20456;-71
2021/11/03 03:08:08;;;;;;;7.10;5.00;;;;;;;;;;5139951;27;20467;-72
2021/11/03 03:10:39;;;;;;;7.13;5.50;;;;;;;;;;5139695;27;20438;-72
2021/11/03 03:13:06;;;;;;;11.03;5.83;;;;;;;;;;5140165;27;20450;-71
2021/11/03 03:15:33;;;;;;;9.20;5.57;;;;;;;;;;5138999;27;21063;-71
2021/11/03 03:18:01;;;;;;;9.10;6.10;;;;;;;;;;5139334;27;20460;-71
2021/11/03 03:20:28;;;;;;;8.07;5.33;;;;;;;;;;5119705;27;20477;-71
2021/11/03 03:22:55;;;;;;;8.60;6.40;;;;;;;;;;5136376;27;20458;-71
2021/11/03 03:25:23;;;;;;;10.03;5.13;;;;;;;;;;5140078;27;20453;-73
2021/11/03 03:27:51;;;;;;;9.33;5.03;;;;;;;;;;5133826;27;20483;-71
2021/11/03 03:30:22;;;;;;;11.27;6.23;;;;;;;;;;5133575;27;20857;-71
2021/11/03 03:32:49;;;;;;;9.00;5.73;;;;;;;;;;5139379;27;20733;-71
2021/11/03 03:35:17;;;;;;;12.70;6.27;;;;;;;;;;5139205;27;20565;-71
2021/11/03 03:37:44;;;;;;;11.63;5.60;;;;;;;;;;5139011;27;20738;-72
2021/11/03 03:40:12;;;;;;;12.20;6.97;;;;;;;;;;5139334;27;20556;-72
2021/11/03 03:42:39;;;;;;;16.93;6.70;;;;;;;;;;5139265;27;20490;-71
2021/11/03 03:45:07;;;;;;;9.17;6.50;;;;;;;;;;5139851;27;20446;-71
2021/11/03 03:47:34;;;;;;;9.80;5.87;;;;;;;;;;5136843;27;20465;-71
2021/11/03 03:50:01;;;;;;;10.63;6.00;;;;;;;;;;5138685;27;20521;-71
2021/11/03 03:52:29;;;;;;;7.70;5.80;;;;;;;;;;5138225;27;20458;-70
2021/11/03 03:54:56;;;;;;;10.80;6.67;;;;;;;;;;5138504;27;20465;-71
2021/11/03 03:57:23;;;;;;;9.63;6.50;;;;;;;;;;5139248;27;20453;-71
2021/11/03 03:59:51;;;;;;;10.27;6.53;;;;;;;;;;5139331;27;20481;-71
2021/11/03 04:02:18;;;;;;;8.90;5.97;;;;;;;;;;5140100;27;20450;-71
2021/11/03 04:04:46;;;;;;;10.57;6.67;;;;;;;;;;5133582;27;20461;-71
2021/11/03 04:07:13;;;;;;;7.50;6.70;;;;;;;;;;5139236;27;20457;-71
2021/11/03 04:09:40;;;;;;;9.70;5.90;;;;;;;;;;5129281;27;20489;-72
2021/11/03 04:12:08;;;;;;;11.03;7.53;;;;;;;;;;5118474;27;20462;-72
2021/11/03 04:14:36;;;;;;;15.10;7.00;;;;;;;;;;5117958;27;20450;-71
2021/11/03 04:17:04;;;;;;;8.20;5.63;;;;;;;;;;5118341;27;20451;-72
2021/11/03 04:19:32;;;;;;;8.00;5.80;;;;;;;;;;5121958;27;20481;-71
2021/11/03 04:22:05;;;;;;;10.17;6.20;;;;;;;;;;5123690;27;20469;-71
2021/11/03 04:24:32;;;;;;;12.43;7.47;;;;;;;;;;5129918;27;20453;-71
2021/11/03 04:27:01;;;;;;;8.83;6.43;;;;;;;;;;5138995;27;20449;-71
2021/11/03 04:29:29;;;;;;;7.50;5.33;;;;;;;;;;5132315;27;20446;-71
2021/11/03 04:31:58;;;;;;;10.33;7.10;;;;;;;;;;5137896;27;20458;-71
2021/11/03 04:34:25;;;;;;;8.53;5.60;;;;;;;;;;5129318;27;20468;-71
2021/11/03 04:37:03;;;;;;;8.30;5.83;;;;;;;;;;5140194;27;20540;-71
2021/11/03 04:39:33;;;;;;;7.40;5.87;;;;;;;;;;5138667;27;20938;-70
2021/11/03 04:42:01;;;;;;;8.03;6.10;;;;;;;;;;5129445;27;20762;-72
2021/11/03 04:44:31;;;;;;;10.83;6.10;;;;;;;;;;5137977;27;20489;-71
2021/11/03 04:47:06;;;;;;;10.33;6.13;;;;;;;;;;5138395;27;20448;-71
2021/11/03 04:49:33;;;;;;;8.33;5.73;;;;;;;;;;5133059;27;20484;-71
2021/11/03 04:52:01;;;;;;;9.80;6.10;;;;;;;;;;5127116;27;20437;-71
2021/11/03 04:54:29;;;;;;;7.83;6.37;;;;;;;;;;5135121;27;20536;-71
2021/11/03 04:56:56;;;;;;;7.80;5.57;;;;;;;;;;5139195;27;20446;-71
2021/11/03 04:59:23;;;;;;;8.87;5.93;;;;;;;;;;5137888;27;20488;-71
2021/11/03 05:01:50;;;;;;;7.93;5.77;;;;;;;;;;5138808;27;20533;-71
2021/11/03 05:04:18;;;;;;;11.10;6.47;;;;;;;;;;5121783;27;20934;-72
2021/11/03 05:06:48;;;;;;;9.37;5.80;;;;;;;;;;5132678;27;20458;-72
2021/11/03 05:09:17;;;;;;;7.67;5.90;;;;;;;;;;5138370;27;20475;-72
2021/11/03 05:11:45;;;;;;;10.07;7.03;;;;;;;;;;5136653;27;20462;-70
2021/11/03 05:14:13;;;;;;;8.23;5.87;;;;;;;;;;5137252;27;20454;-72
2021/11/03 05:16:40;;;;;;;10.90;6.00;;;;;;;;;;5138052;27;20453;-71
2021/11/03 05:19:07;;;;;;;9.53;6.77;;;;;;;;;;5138286;27;20534;-74
2021/11/03 05:21:36;;;;;;;8.87;6.30;;;;;;;;;;5137134;27;20450;-72
2021/11/03 05:24:03;;;;;;;10.70;7.40;;;;;;;;;;5129178;27;20518;-71
2021/11/03 05:26:31;;;;;;;10.00;7.40;;;;;;;;;;5138487;27;20525;-70
2021/11/03 05:29:00;;;;;;;8.63;6.17;;;;;;;;;;5138528;27;20457;-71
2021/11/03 05:31:27;;;;;;;11.57;6.23;;;;;;;;;;5137100;27;20450;-72
2021/11/03 05:33:55;;;;;;;10.10;6.30;;;;;;;;;;5137221;27;20465;-72
2021/11/03 05:36:23;;;;;;;8.17;5.83;;;;;;;;;;5138829;27;20462;-72
2021/11/03 05:38:50;;;;;;;10.63;6.27;;;;;;;;;;5138173;27;20491;-72
2021/11/03 05:41:18;;;;;;;9.23;6.60;;;;;;;;;;5137419;27;20574;-72
2021/11/03 05:43:46;;;;;;;8.60;6.00;;;;;;;;;;5136620;27;20442;-72
2021/11/03 05:46:15;;;;;;;9.70;5.83;;;;;;;;;;5136724;27;20480;-73
2021/11/03 05:48:47;;;;;;;11.70;5.93;;;;;;;;;;5137639;27;20461;-72
2021/11/03 05:51:14;;;;;;;9.03;6.57;;;;;;;;;;5138529;27;20453;-72
2021/11/03 05:53:41;;;;;;;17.73;9.37;;;;;;;;;;5136770;27;20776;-72
2021/11/03 05:56:09;;;;;;;9.60;7.20;;;;;;;;;;5138357;27;20544;-72
2021/11/03 05:58:37;;;;;;;13.97;7.37;;;;;;;;;;5136144;27;20748;-72
2021/11/03 06:01:07;;;;;;;9.90;6.43;;;;;;;;;;5137512;27;20544;-72
2021/11/03 06:03:34;;;;;;;10.60;7.07;;;;;;;;;;5135374;27;20465;-72
2021/11/03 06:06:01;;;;;;;8.07;6.53;;;;;;;;;;5137130;27;20588;-72
2021/11/03 06:08:31;;;;;;;9.33;7.10;;;;;;;;;;5136746;27;20537;-72
2021/11/03 06:10:59;;;;;;;8.63;6.80;;;;;;;;;;5138268;27;20924;-72
2021/11/03 06:13:26;;;;;;;11.90;7.20;;;;;;;;;;5139766;27;20776;-72
2021/11/03 06:15:54;;;;;;;12.77;7.80;;;;;;;;;;5118577;27;20545;-72
2021/11/03 06:18:21;;;;;;;10.70;6.33;;;;;;;;;;5130995;27;20450;-72
2021/11/03 06:20:53;;;;;;;8.40;6.27;;;;;;;;;;5132188;27;20458;-71
2021/11/03 06:23:20;;;;;;;11.93;7.43;;;;;;;;;;5117802;27;20469;-71
2021/11/03 06:25:47;;;;;;;11.77;6.83;;;;;;;;;;5133538;27;20537;-73
2021/11/03 06:28:14;;;;;;;8.70;6.40;;;;;;;;;;5139537;27;20521;-74
2021/11/03 06:30:44;;;;;;;11.93;6.63;;;;;;;;;;5137022;27;20461;-71
2021/11/03 06:33:11;;;;;;;10.97;6.40;;;;;;;;;;5138984;27;20541;-71
2021/11/03 06:35:41;;;;;;;13.33;8.23;;;;;;;;;;5133815;27;20790;-71
2021/11/03 06:38:09;;;;;;;11.03;7.00;;;;;;;;;;5138945;27;20446;-72
2021/11/03 06:40:37;;;;;;;14.37;8.90;;;;;;;;;;5137158;27;20979;-71
2021/11/03 06:43:04;;;;;;;12.20;7.70;;;;;;;;;;5137844;27;20446;-72
2021/11/03 06:45:32;;;;;;;13.80;6.53;;;;;;;;;;5136660;27;20533;-72
2021/11/03 06:47:59;;;;;;;11.33;8.23;;;;;;;;;;5137165;27;20460;-72
2021/11/03 06:50:28;;;;;;;13.53;7.87;;;;;;;;;;5136588;27;20761;-72
2021/11/03 06:53:02;;;;;;;11.03;7.83;;;;;;;;;;5135830;27;20453;-71
2021/11/03 06:55:29;;;;;;;14.50;9.67;;;;;;;;;;5137922;27;20460;-71
2021/11/03 06:58:00;;;;;;;16.30;9.63;;;;;;;;;;5138621;27;20457;-71
2021/11/03 07:00:34;;;;;;;15.67;9.40;;;;;;;;;;5138245;27;20492;-72
2021/11/03 07:03:06;;;;;;;11.40;7.10;;;;;;;;;;5137859;27;20505;-72
2021/11/03 07:05:35;;;;;;;12.17;8.13;;;;;;;;;;5137213;27;20773;-71
2021/11/03 07:08:10;;;;;;;11.07;7.40;;;;;;;;;;5125282;27;20455;-73
2021/11/03 07:10:39;;;;;;;11.77;7.23;;;;;;;;;;5124072;27;20504;-72
2021/11/03 07:13:07;;;;;;;12.43;7.80;;;;;;;;;;5126459;27;20487;-72
2021/11/03 07:15:35;;;;;;;12.10;7.77;;;;;;;;;;5136131;27;20442;-72
2021/11/03 07:18:03;;;;;;;11.63;9.77;;;;;;;;;;5137211;27;20581;-72
2021/11/03 07:20:32;;;;;;;13.43;9.57;;;;;;;;;;5133582;27;20627;-72
2021/11/03 07:22:59;;;;;;;15.20;8.10;;;;;;;;;;5131277;27;20739;-72
2021/11/03 07:25:28;;;;;;;14.20;10.47;;;;;;;;;;5122304;27;20461;-71
2021/11/03 07:27:57;;;;;;;14.10;9.03;;;;;;;;;;5129466;27;20447;-72
2021/11/03 07:30:26;;;;;;;13.17;9.30;;;;;;;;;;5123185;27;20477;-71
2021/11/03 07:32:54;;;;;;;14.33;9.80;;;;;;;;;;5129489;27;20466;-71
2021/11/03 07:35:21;;;;;;;11.67;8.40;;;;;;;;;;5132901;27;20462;-72
2021/11/03 07:37:49;;;;;;;17.40;10.33;;;;;;;;;;5140133;27;20450;-73
2021/11/03 07:40:23;;;;;;;14.40;9.90;;;;;;;;;;5136717;27;20474;-71
2021/11/03 07:42:57;;;;;;;11.80;8.13;;;;;;;;;;5130853;27;20899;-72
2021/11/03 07:45:25;;;;;;;13.17;8.87;;;;;;;;;;5138684;27;20740;-72
2021/11/03 07:47:55;;;;;;;19.50;12.17;;;;;;;;;;5137539;27;20545;-71
2021/11/03 07:50:24;;;;;;;15.60;10.93;;;;;;;;;;5136962;27;20457;-72
2021/11/03 07:52:51;;;;;;;19.47;10.27;;;;;;;;;;5138261;27;20450;-72
2021/11/03 07:55:18;;;;;;;17.33;9.40;;;;;;;;;;5138484;27;20446;-72
2021/11/03 07:57:46;;;;;;;23.07;12.53;;;;;;;;;;5133347;27;20602;-72
2021/11/03 08:00:21;;;;;;;16.27;10.67;;;;;;;;;;5118058;27;20550;-73
2021/11/03 08:02:54;;;;;;;17.47;11.80;;;;;;;;;;5117295;27;20458;-76
2021/11/03 08:05:33;;;;;;;18.40;10.90;;;;;;;;;;5129935;27;20517;-74
2021/11/03 08:08:03;;;;;;;21.77;17.30;;;;;;;;;;5130642;27;20460;-72
2021/11/03 08:10:30;;;;;;;16.40;9.70;;;;;;;;;;5136844;27;20457;-74
2021/11/03 08:12:58;;;;;;;17.83;11.13;;;;;;;;;;5138440;27;20454;-72
2021/11/03 08:15:28;;;;;;;18.47;11.00;;;;;;;;;;5137871;27;20461;-72
2021/11/03 08:17:55;;;;;;;20.60;14.93;;;;;;;;;;5137205;27;20466;-72
2021/11/03 08:20:26;;;;;;;16.63;11.47;;;;;;;;;;5135825;27;20490;-72
2021/11/03 08:22:53;;;;;;;14.87;9.07;;;;;;;;;;5138466;27;20454;-72
2021/11/03 08:25:29;;;;;;;21.17;13.97;;;;;;;;;;5136913;27;20445;-72
2021/11/03 08:27:56;;;;;;;21.10;12.63;;;;;;;;;;5137557;27;20509;-72
2021/11/03 08:30:24;;;;;;;27.50;16.73;;;;;;;;;;5137106;27;20733;-71
2021/11/03 08:32:57;;;;;;;21.10;12.40;;;;;;;;;;5137317;27;20966;-71
2021/11/03 08:35:39;;;;;;;19.50;11.70;;;;;;;;;;5136369;27;20445;-73
2021/11/03 08:38:12;;;;;;;18.73;11.63;;;;;;;;;;5134181;27;20833;-72
2021/11/03 08:40:40;;;;;;;14.90;10.17;;;;;;;;;;5136536;27;20482;-72
2021/11/03 08:43:11;;;;;;;24.37;13.87;;;;;;;;;;5137005;27;20450;-72
2021/11/03 08:45:41;;;;;;;19.10;11.37;;;;;;;;;;5135405;27;20457;-72
2021/11/03 08:48:21;;;;;;;20.00;13.37;;;;;;;;;;5136006;27;20464;-73
2021/11/03 08:50:51;;;;;;;25.73;15.90;;;;;;;;;;5135234;27;20840;-72
2021/11/03 08:53:18;;;;;;;17.50;12.37;;;;;;;;;;5126179;27;20202;-73
2021/11/03 08:55:45;;;;;;;24.00;15.23;;;;;;;;;;5130558;27;20465;-72
2021/11/03 08:58:20;;;;;;;26.70;13.30;;;;;;;;;;5136439;27;21130;-72
2021/11/03 09:00:50;;;;;;;15.37;11.27;;;;;;;;;;5130990;27;20449;-71
2021/11/03 09:03:21;;;;;;;20.27;11.90;;;;;;;;;;5122613;27;20474;-73
2021/11/03 09:05:49;;;;;;;19.60;11.97;;;;;;;;;;5115710;27;20442;-71
2021/11/03 09:08:22;;;;;;;17.40;10.70;;;;;;;;;;5124427;27;20556;-73
2021/11/03 09:10:54;;;;;;;18.33;11.77;;;;;;;;;;5134893;27;20746;-71
2021/11/03 09:13:23;;;;;;;16.90;12.50;;;;;;;;;;5134041;27;20446;-72
2021/11/03 09:15:53;;;;;;;16.77;11.40;;;;;;;;;;5134544;27;20461;-72
2021/11/03 09:18:20;;;;;;;18.20;12.13;;;;;;;;;;5137604;27;20795;-70
2021/11/03 09:20:50;;;;;;;20.07;12.50;;;;;;;;;;5135792;27;20438;-74
2021/11/03 09:23:55;;;;;;;19.83;15.30;;;;;;;;;;5137463;27;20460;-72
2021/11/03 09:26:25;;;;;;;18.77;13.00;;;;;;;;;;5130271;27;20463;-71
2021/11/03 09:28:54;;;;;;;22.30;15.50;;;;;;;;;;5116145;27;20454;-72
2021/11/03 09:31:21;;;;;;;22.83;12.63;;;;;;;;;;5117986;27;20505;-71
2021/11/03 09:33:51;;;;;;;19.50;12.67;;;;;;;;;;5114199;27;20451;-72
2021/11/03 09:36:29;;;;;;;27.37;17.03;;;;;;;;;;5115275;27;20466;-72
2021/11/03 09:39:00;;;;;;;22.03;12.90;;;;;;;;;;5121764;27;20470;-71
2021/11/03 09:41:32;;;;;;;20.40;12.97;;;;;;;;;;5135889;27;20454;-71
2021/11/03 09:44:03;;;;;;;22.57;17.57;;;;;;;;;;5135493;27;20493;-72
2021/11/03 09:46:35;;;;;;;17.07;11.73;;;;;;;;;;5137002;27;21001;-71
2021/11/03 09:49:09;;;;;;;20.93;12.73;;;;;;;;;;5133567;27;20510;-70
2021/11/03 09:51:37;;;;;;;23.23;14.53;;;;;;;;;;5132116;27;20544;-71
2021/11/03 09:54:08;;;;;;;19.50;11.80;;;;;;;;;;5118412;27;20498;-72
2021/11/03 09:56:39;;;;;;;18.27;11.70;;;;;;;;;;5126824;27;20479;-71
2021/11/03 09:59:17;;;;;;;22.77;13.40;;;;;;;;;;5120953;27;20471;-72
2021/11/03 10:01:47;;;;;;;18.97;11.97;;;;;;;;;;5120842;27;20489;-71
2021/11/03 10:04:22;;;;;;;20.30;13.83;;;;;;;;;;5120518;27;20573;-72
2021/11/03 10:06:53;;;;;;;24.20;14.00;;;;;;;;;;5114722;27;20877;-70
2021/11/03 10:09:20;;;;;;;24.23;13.93;;;;;;;;;;5126788;27;20546;-74
2021/11/03 10:11:52;;;;;;;27.87;17.63;;;;;;;;;;5135660;27;20757;-73
2021/11/03 10:14:19;;;;;;;28.87;15.77;;;;;;;;;;5135435;27;20879;-70
2021/11/03 10:16:54;;;;;;;29.57;16.53;;;;;;;;;;5122959;27;20461;-72
2021/11/03 10:19:27;;;;;;;26.23;17.70;;;;;;;;;;5132013;27;20541;-72
2021/11/03 10:21:58;;;;;;;21.93;13.70;;;;;;;;;;5135235;27;20510;-72
2021/11/03 10:24:28;;;;;;;21.20;14.80;;;;;;;;;;5120482;27;20462;-72
2021/11/03 10:26:56;;;;;;;21.60;15.27;;;;;;;;;;5129707;27;20479;-72
2021/11/03 10:29:33;;;;;;;23.27;13.23;;;;;;;;;;5121421;27;20518;-72
2021/11/03 10:32:07;;;;;;;23.17;14.90;;;;;;;;;;5127300;27;20454;-71
2021/11/03 10:34:43;;;;;;;23.53;15.27;;;;;;;;;;5118348;27;20492;-71
2021/11/03 10:37:22;;;;;;;23.50;12.87;;;;;;;;;;5122393;27;20454;-72
2021/11/03 10:39:56;;;;;;;20.00;13.20;;;;;;;;;;5121543;27;20517;-72
2021/11/03 10:42:25;;;;;;;20.07;13.33;;;;;;;;;;5135814;27;20456;-71
2021/11/03 10:44:58;;;;;;;25.83;15.33;;;;;;;;;;5138392;27;20452;-71
2021/11/03 10:47:26;;;;;;;28.03;16.83;;;;;;;;;;5119489;27;20466;-72
2021/11/03 10:50:01;;;;;;;22.10;15.30;;;;;;;;;;5125394;27;20568;-72
2021/11/03 10:52:47;;;;;;;22.70;16.97;;;;;;;;;;5121492;27;20877;-71
2021/11/03 10:55:23;;;;;;;28.17;15.47;;;;;;;;;;5120357;27;20452;-72
2021/11/03 10:57:56;;;;;;;39.30;19.17;;;;;;;;;;5133098;27;20473;-72
2021/11/03 11:00:25;;;;;;;28.40;17.23;;;;;;;;;;5130023;27;20834;-72
2021/11/03 11:03:13;;;;;;;20.70;14.10;;;;;;;;;;5118966;27;20545;-72
2021/11/03 11:05:48;;;;;;;20.40;13.90;;;;;;;;;;5129467;27;20441;-71
2021/11/03 11:08:18;;;;;;;16.83;11.87;;;;;;;;;;5136756;27;20461;-71
2021/11/03 11:10:54;;;;;;;22.73;15.60;;;;;;;;;;5131577;27;20866;-71
2021/11/03 11:13:26;;;;;;;29.33;15.87;;;;;;;;;;5127903;27;21140;-70
2021/11/03 11:16:08;;;;;;;18.77;13.47;;;;;;;;;;5123651;27;20454;-71
2021/11/03 11:18:43;;;;;;;17.83;10.83;;;;;;;;;;5117787;27;20838;-71
2021/11/03 11:21:16;;;;;;;21.43;13.13;;;;;;;;;;5116712;27;20447;-70
2021/11/03 11:23:46;;;;;;;22.37;15.20;;;;;;;;;;5127655;27;20464;-72
2021/11/03 11:26:22;;;;;;;20.03;13.17;;;;;;;;;;5136709;27;20475;-72
2021/11/03 11:28:53;;;;;;;20.87;13.10;;;;;;;;;;5122586;27;20889;-72
2021/11/03 11:31:31;;;;;;;29.00;15.30;;;;;;;;;;5117789;27;20461;-72
2021/11/03 11:34:03;;;;;;;22.90;13.17;;;;;;;;;;5135163;27;20457;-71
2021/11/03 11:36:37;;;;;;;24.80;16.13;;;;;;;;;;5159449;27;20448;-72
2021/11/03 11:39:15;;;;;;;24.90;15.80;;;;;;;;;;5146009;27;20536;-72
2021/11/03 11:41:50;;;;;;;17.93;13.90;;;;;;;;;;5154204;27;20549;-73
2021/11/03 11:44:39;;;;;;;19.37;13.57;;;;;;;;;;5137786;27;20548;-73
2021/11/03 11:47:18;;;;;;;21.50;13.20;;;;;;;;;;5120640;27;20450;-71
2021/11/03 11:49:48;;;;;;;22.20;12.20;;;;;;;;;;5116433;27;20454;-72
2021/11/03 11:52:18;;;;;;;19.00;11.60;;;;;;;;;;5116136;27;20503;-72
2021/11/03 11:55:06;;;;;;;29.53;15.20;;;;;;;;;;5125016;27;20801;-71
2021/11/03 11:57:36;;;;;;;21.90;12.53;;;;;;;;;;5121085;27;20509;-71
2021/11/03 12:00:30;;;;;;;23.47;12.53;;;;;;;;;;5125698;27;20478;-71
2021/11/03 12:03:20;;;;;;;16.63;10.90;;;;;;;;;;5116074;28;20540;-72
2021/11/03 12:05:57;;;;;;;22.17;12.30;;;;;;;;;;5129467;27;20873;-71
2021/11/03 12:08:28;;;;;;;18.90;12.27;;;;;;;;;;5137444;27;20484;-72
2021/11/03 12:11:14;;;;;;;24.83;14.27;;;;;;;;;;5130509;27;21013;-71
2021/11/03 12:13:56;;;;;;;15.43;10.63;;;;;;;;;;5125878;27;20541;-71
2021/11/03 12:16:33;;;;;;;18.17;10.70;;;;;;;;;;5121875;27;20455;-72
2021/11/03 12:19:06;;;;;;;12.97;10.40;;;;;;;;;;5117669;27;20486;-72
2021/11/03 12:21:41;;;;;;;16.87;12.57;;;;;;;;;;5125715;27;20478;-72
2021/11/03 12:24:26;;;;;;;13.87;8.13;;;;;;;;;;5133923;27;20484;-71
2021/11/03 12:27:14;;;;;;;15.57;10.50;;;;;;;;;;5129806;27;20453;-73
2021/11/03 12:29:42;;;;;;;16.90;11.20;;;;;;;;;;5137438;27;20534;-71
2021/11/03 12:32:29;;;;;;;16.23;10.30;;;;;;;;;;5135024;27;20450;-72
2021/11/03 12:35:03;;;;;;;13.90;9.90;;;;;;;;;;5125404;27;20457;-71
2021/11/03 12:37:35;;;;;;;15.80;11.53;;;;;;;;;;5136794;27;20721;-71
2021/11/03 12:40:06;;;;;;;15.17;10.40;;;;;;;;;;5136397;27;20838;-72
2021/11/03 12:42:52;;;;;;;17.50;12.70;;;;;;;;;;5137508;27;20548;-72
2021/11/03 12:45:20;;;;;;;15.27;10.03;;;;;;;;;;5136748;27;20516;-71
2021/11/03 12:47:52;;;;;;;15.67;10.60;;;;;;;;;;5128814;27;20857;-71
2021/11/03 12:50:22;;;;;;;16.70;11.20;;;;;;;;;;5137148;27;20537;-70
2021/11/03 12:52:51;;;;;;;16.47;10.80;;;;;;;;;;5135465;27;20461;-71
2021/11/03 12:55:22;;;;;;;13.83;10.90;;;;;;;;;;5133500;27;20438;-70
2021/11/03 12:57:49;;;;;;;12.17;8.50;;;;;;;;;;5129441;27;20968;-72
2021/11/03 13:00:23;;;;;;;19.20;11.30;;;;;;;;;;5134111;27;20485;-73
2021/11/03 13:02:59;;;;;;;16.97;11.80;;;;;;;;;;5131087;27;20873;-71
2021/11/03 13:05:29;;;;;;;17.27;11.60;;;;;;;;;;5125892;27;20934;-71
2021/11/03 13:07:56;;;;;;;17.73;12.33;;;;;;;;;;5134987;27;20560;-71
2021/11/03 13:10:25;;;;;;;16.67;12.00;;;;;;;;;;5135811;27;20820;-71
2021/11/03 13:12:57;;;;;;;13.77;8.70;;;;;;;;;;5136491;27;20546;-71
2021/11/03 13:15:28;;;;;;;13.63;9.17;;;;;;;;;;5136583;27;20601;-72
2021/11/03 13:17:58;;;;;;;13.10;9.50;;;;;;;;;;5135437;27;20476;-72
2021/11/03 13:20:27;;;;;;;17.13;11.27;;;;;;;;;;5135851;27;20481;-72
2021/11/03 13:22:56;;;;;;;14.87;8.47;;;;;;;;;;5125456;27;20985;-71
2021/11/03 13:25:26;;;;;;;15.07;10.30;;;;;;;;;;5130071;27;20453;-72
2021/11/03 13:28:03;;;;;;;15.30;12.07;;;;;;;;;;5136222;27;20477;-71
2021/11/03 13:30:33;;;;;;;13.13;10.30;;;;;;;;;;5134338;27;20764;-71
2021/11/03 13:33:03;;;;;;;12.90;8.50;;;;;;;;;;5138460;27;20454;-71
2021/11/03 13:35:48;;;;;;;20.87;12.30;;;;;;;;;;5135570;27;20506;-72
2021/11/03 13:38:32;;;;;;;10.30;8.10;;;;;;;;;;5137884;27;20453;-71
2021/11/03 13:41:08;;;;;;;15.57;9.40;;;;;;;;;;5136799;27;20481;-70
2021/11/03 13:43:48;;;;;;;13.60;8.97;;;;;;;;;;5118680;28;20457;-71
2021/11/03 13:46:34;;;;;;;17.03;8.67;;;;;;;;;;5137624;27;20454;-71
2021/11/03 13:49:16;;;;;;;11.93;7.90;;;;;;;;;;5126064;27;20462;-71
2021/11/03 13:51:50;;;;;;;15.27;7.87;;;;;;;;;;5126126;27;20460;-71
2021/11/03 13:54:33;;;;;;;12.10;8.77;;;;;;;;;;5138645;27;20866;-72
2021/11/03 13:57:14;;;;;;;13.10;7.60;;;;;;;;;;5128742;27;20463;-71
2021/11/03 13:59:57;;;;;;;11.10;7.20;;;;;;;;;;5116146;27;20486;-71
2021/11/03 14:02:35;;;;;;;11.60;7.77;;;;;;;;;;5116319;27;20455;-72
2021/11/03 14:05:26;;;;;;;11.30;7.07;;;;;;;;;;5115861;27;20478;-70
2021/11/03 14:07:54;;;;;;;14.07;10.20;;;;;;;;;;5117201;27;20451;-72
2021/11/03 14:10:22;;;;;;;15.20;7.60;;;;;;;;;;5117716;27;20541;-72
2021/11/03 14:12:50;;;;;;;9.77;6.20;;;;;;;;;;5118533;27;20522;-71
2021/11/03 14:15:18;;;;;;;9.57;6.80;;;;;;;;;;5126460;27;20803;-69
2021/11/03 14:17:59;;;;;;;12.00;8.40;;;;;;;;;;5137611;27;20509;-71
2021/11/03 14:20:44;;;;;;;15.23;8.47;;;;;;;;;;5138540;27;20473;-71
2021/11/03 14:23:21;;;;;;;11.67;7.00;;;;;;;;;;5132858;27;20455;-72
2021/11/03 14:26:10;;;;;;;12.73;8.37;;;;;;;;;;5123112;27;20450;-71
2021/11/03 14:28:46;;;;;;;11.40;7.80;;;;;;;;;;5139681;27;20458;-71
2021/11/03 14:31:22;;;;;;;14.67;8.30;;;;;;;;;;5141344;27;20445;-72
2021/11/03 14:33:50;;;;;;;12.80;8.97;;;;;;;;;;5142503;27;20535;-72
2021/11/03 14:36:22;;;;;;;11.93;7.97;;;;;;;;;;5142192;27;20485;-71
2021/11/03 14:38:51;;;;;;;11.80;7.93;;;;;;;;;;5131361;27;20462;-70
2021/11/03 14:41:29;;;;;;;13.73;8.90;;;;;;;;;;5136523;27;20456;-70
2021/11/03 14:44:31;;;;;;;10.77;7.60;;;;;;;;;;5138676;27;20456;-71
2021/11/03 14:47:00;;;;;;;27.33;15.87;;;;;;;;;;5124470;27;20569;-70
2021/11/03 14:49:54;;;;;;;15.10;9.03;;;;;;;;;;5140137;27;20453;-71
2021/11/03 14:52:38;;;;;;;12.27;8.87;;;;;;;;;;5136578;27;20458;-70